Time;durP1;ratioP1;P1;durP2;ratioP2;P2;SDS_P1;SDS_P2;PMS_P1;PMS_P2;Temp;Humidity;BMP_temperature;BMP_pressure;BME280_temperature;BME280_humidity;BME280_pressure;Samples;Min_cycle;Max_cycle;Signal;HPM_P1;HPM_P2
2023/09/08 00:00:51;;;;;;;12.75;10.27;;;23.20;99.90;;;;;;4971482;28;20039;-87
2023/09/08 00:03:17;;;;;;;11.48;10.30;;;23.10;99.90;;;;;;4978193;28;20069;-87
2023/09/08 00:05:43;;;;;;;12.30;11.18;;;23.00;99.90;;;;;;4981968;28;20401;-86
2023/09/08 00:08:08;;;;;;;11.73;10.73;;;23.10;99.90;;;;;;4961898;28;20078;-87
2023/09/08 00:10:34;;;;;;;19.15;11.68;;;23.00;99.90;;;;;;4957806;28;20061;-86
2023/09/08 00:12:59;;;;;;;12.65;11.32;;;22.90;99.90;;;;;;4968822;28;20059;-86
2023/09/08 00:15:25;;;;;;;12.70;11.55;;;22.90;99.90;;;;;;4963006;28;20471;-87
2023/09/08 00:17:50;;;;;;;16.13;12.25;;;22.90;99.90;;;;;;4968713;28;20476;-86
2023/09/08 00:20:16;;;;;;;14.48;11.98;;;22.80;99.90;;;;;;4971084;28;20030;-86
2023/09/08 00:22:41;;;;;;;13.15;11.85;;;22.80;99.90;;;;;;4971198;28;20106;-86
2023/09/08 00:25:07;;;;;;;12.57;11.43;;;22.90;99.90;;;;;;4960402;28;20551;-87
2023/09/08 00:27:33;;;;;;;12.95;11.63;;;22.70;99.90;;;;;;4969783;28;20058;-86
2023/09/08 00:30:01;;;;;;;12.40;11.23;;;22.70;99.90;;;;;;4975602;28;20493;-86
2023/09/08 00:32:27;;;;;;;12.50;11.23;;;22.70;99.90;;;;;;4967196;28;20031;-86
2023/09/08 00:34:53;;;;;;;12.90;11.70;;;22.70;99.90;;;;;;4972924;28;20033;-86
2023/09/08 00:37:18;;;;;;;12.80;11.60;;;22.70;99.90;;;;;;4959146;28;20463;-86
2023/09/08 00:39:44;;;;;;;15.18;11.63;;;22.80;99.90;;;;;;4964650;28;20031;-86
2023/09/08 00:42:09;;;;;;;16.58;11.35;;;22.70;99.90;;;;;;4975595;28;20498;-85
2023/09/08 00:44:35;;;;;;;12.88;11.60;;;22.70;99.90;;;;;;4960906;28;20308;-85
2023/09/08 00:47:01;;;;;;;13.18;11.85;;;22.70;99.90;;;;;;4973367;28;20418;-85
2023/09/08 00:49:28;;;;;;;13.55;12.15;;;22.80;99.90;;;;;;4971733;28;20038;-85
2023/09/08 00:51:54;;;;;;;12.73;11.43;;;22.70;99.90;;;;;;4970346;28;20038;-86
2023/09/08 00:54:19;;;;;;;12.93;11.73;;;22.70;99.90;;;;;;4969243;28;20031;-86
2023/09/08 00:56:48;;;;;;;14.63;13.02;;;23.00;99.90;;;;;;4964498;28;20027;-84
2023/09/08 00:59:13;;;;;;;17.17;12.10;;;22.60;99.90;;;;;;4963854;28;20166;-85
2023/09/08 01:01:39;;;;;;;13.45;11.70;;;22.60;99.90;;;;;;4976523;28;20035;-86
2023/09/08 01:04:05;;;;;;;13.07;11.73;;;22.60;99.90;;;;;;4972291;28;20031;-86
2023/09/08 01:06:32;;;;;;;12.55;11.48;;;22.50;99.90;;;;;;4978137;28;20087;-86
2023/09/08 01:08:59;;;;;;;13.20;11.90;;;22.50;99.90;;;;;;4969316;28;20043;-85
2023/09/08 01:11:25;;;;;;;21.75;13.20;;;22.50;99.90;;;;;;4959405;29;20031;-86
2023/09/08 01:13:51;;;;;;;19.42;12.50;;;22.50;99.90;;;;;;4968411;28;20154;-86
2023/09/08 01:16:17;;;;;;;13.45;11.95;;;22.50;99.90;;;;;;4960077;28;20121;-86
2023/09/08 01:18:45;;;;;;;12.15;11.00;;;22.40;99.90;;;;;;4956493;28;20031;-85
2023/09/08 01:21:25;;;;;;;12.60;11.38;;;22.40;99.90;;;;;;4973164;28;20517;-86
2023/09/08 01:24:04;;;;;;;13.85;12.55;;;22.40;99.90;;;;;;4965924;28;20026;-85
2023/09/08 01:26:36;;;;;;;12.82;11.57;;;22.50;99.90;;;;;;4965156;28;20530;-87
2023/09/08 01:29:03;;;;;;;13.15;11.95;;;22.40;99.90;;;;;;4964873;28;20055;-87
2023/09/08 01:31:29;;;;;;;13.95;12.32;;;22.40;99.90;;;;;;4965784;28;20042;-85
2023/09/08 01:33:55;;;;;;;17.38;12.25;;;22.20;99.90;;;;;;4957180;28;20031;-85
2023/09/08 01:36:20;;;;;;;13.55;12.15;;;22.30;99.90;;;;;;4967127;28;20039;-86
2023/09/08 01:38:46;;;;;;;13.25;12.07;;;22.30;99.90;;;;;;4966054;28;20501;-86
2023/09/08 01:41:12;;;;;;;15.05;12.23;;;22.30;99.90;;;;;;4959353;28;20037;-85
2023/09/08 01:43:37;;;;;;;12.43;11.27;;;22.30;99.90;;;;;;4964821;28;20110;-85
2023/09/08 01:46:03;;;;;;;13.88;12.25;;;22.30;99.90;;;;;;4969667;28;20054;-86
2023/09/08 01:48:28;;;;;;;12.35;11.32;;;22.30;99.90;;;;;;4970090;28;20023;-86
2023/09/08 01:50:54;;;;;;;14.32;12.85;;;22.40;99.90;;;;;;4970580;28;20042;-87
2023/09/08 01:53:19;;;;;;;13.60;11.30;;;22.30;99.90;;;;;;4965943;28;20034;-86
2023/09/08 01:55:45;;;;;;;14.05;12.55;;;22.30;99.90;;;;;;4979252;28;20074;-86
2023/09/08 01:58:11;;;;;;;12.93;11.73;;;22.30;99.90;;;;;;4961884;28;20599;-86
2023/09/08 02:00:36;;;;;;;14.57;12.30;;;22.30;99.90;;;;;;4958483;28;20526;-86
2023/09/08 02:03:02;;;;;;;13.93;12.20;;;22.20;99.90;;;;;;4975532;28;20027;-86
2023/09/08 02:05:27;;;;;;;14.30;12.68;;;22.10;99.90;;;;;;4979105;28;20023;-86
2023/09/08 02:07:55;;;;;;;14.68;13.13;;;22.10;99.90;;;;;;4983068;28;20061;-86
2023/09/08 02:10:21;;;;;;;14.43;11.75;;;22.10;99.90;;;;;;4984821;28;20050;-85
2023/09/08 02:12:46;;;;;;;14.70;11.55;;;22.00;99.90;;;;;;4965684;29;20118;-86
2023/09/08 02:15:12;;;;;;;16.55;11.60;;;22.00;99.90;;;;;;4970448;28;20041;-86
2023/09/08 02:17:37;;;;;;;12.93;11.55;;;22.00;99.90;;;;;;4955874;29;20019;-86
2023/09/08 02:20:03;;;;;;;13.10;11.77;;;22.00;99.90;;;;;;4952672;28;20031;-86
2023/09/08 02:22:30;;;;;;;14.00;11.57;;;22.00;99.90;;;;;;4956910;28;20031;-86
2023/09/08 02:24:57;;;;;;;13.23;11.88;;;22.00;99.90;;;;;;4961564;28;20062;-86
2023/09/08 02:27:23;;;;;;;15.23;12.73;;;21.90;99.90;;;;;;4966356;28;20486;-86
2023/09/08 02:29:49;;;;;;;12.70;11.38;;;21.90;99.90;;;;;;4955877;28;20038;-86
2023/09/08 02:32:14;;;;;;;13.23;11.52;;;21.90;99.90;;;;;;4967894;28;20360;-86
2023/09/08 02:34:42;;;;;;;13.35;12.07;;;21.80;99.90;;;;;;4969594;28;20712;-86
2023/09/08 02:37:08;;;;;;;13.73;12.13;;;22.00;99.90;;;;;;4966558;28;20094;-86
2023/09/08 02:39:34;;;;;;;13.93;12.20;;;21.90;99.90;;;;;;4964019;28;20018;-86
2023/09/08 02:41:59;;;;;;;14.88;12.73;;;21.90;99.90;;;;;;4962532;28;20031;-86
2023/09/08 02:44:26;;;;;;;13.32;11.80;;;21.80;99.90;;;;;;4959303;28;20024;-87
2023/09/08 02:46:52;;;;;;;13.57;11.77;;;21.80;99.90;;;;;;4968829;28;20466;-86
2023/09/08 02:49:17;;;;;;;13.32;11.57;;;21.70;99.90;;;;;;4969103;28;20044;-86
2023/09/08 02:51:43;;;;;;;13.13;11.65;;;21.70;99.90;;;;;;4977640;28;20479;-86
2023/09/08 02:54:08;;;;;;;13.40;12.05;;;21.70;99.90;;;;;;4963590;28;20118;-86
2023/09/08 02:56:34;;;;;;;13.18;11.38;;;21.70;99.90;;;;;;4961950;28;20459;-87
2023/09/08 02:58:59;;;;;;;14.27;12.90;;;21.70;99.90;;;;;;4974211;28;20027;-86
2023/09/08 03:01:25;;;;;;;20.48;12.80;;;21.60;99.90;;;;;;4966457;28;20065;-85
2023/09/08 03:03:51;;;;;;;13.43;12.13;;;21.60;99.90;;;;;;4958783;28;20027;-86
2023/09/08 03:06:20;;;;;;;14.95;11.57;;;21.60;99.90;;;;;;4974186;28;20073;-85
2023/09/08 03:08:45;;;;;;;12.85;11.23;;;21.60;99.90;;;;;;4961574;28;20020;-85
2023/09/08 03:11:11;;;;;;;13.02;11.73;;;21.60;99.90;;;;;;4956086;28;20118;-85
2023/09/08 03:13:36;;;;;;;11.98;10.38;;;21.70;99.90;;;;;;4970892;28;20045;-86
2023/09/08 03:16:07;;;;;;;13.23;11.70;;;21.60;99.90;;;;;;4972420;28;20035;-85
2023/09/08 03:18:33;;;;;;;;;;;21.60;99.90;;;;;;4976601;28;20038;-85
2023/09/08 03:21:00;;;;;;;13.68;12.35;;;21.60;99.90;;;;;;4971476;28;19906;-85
2023/09/08 03:23:26;;;;;;;12.45;11.35;;;21.50;99.90;;;;;;4966645;28;20437;-85
2023/09/08 03:25:51;;;;;;;13.18;11.93;;;21.50;99.90;;;;;;4969211;28;20070;-86
2023/09/08 03:28:18;;;;;;;13.02;11.60;;;21.40;99.90;;;;;;4970214;28;20422;-86
2023/09/08 03:30:43;;;;;;;16.75;12.55;;;21.60;99.90;;;;;;4959291;28;20039;-86
2023/09/08 03:33:09;;;;;;;13.73;12.40;;;21.40;99.90;;;;;;4966754;28;20089;-85
2023/09/08 03:35:34;;;;;;;14.48;12.63;;;21.30;99.90;;;;;;4968381;28;20031;-86
2023/09/08 03:38:00;;;;;;;17.25;13.13;;;21.30;99.90;;;;;;4962551;28;20038;-86
2023/09/08 03:40:25;;;;;;;14.88;13.40;;;21.30;99.90;;;;;;4958375;28;20114;-86
2023/09/08 03:42:51;;;;;;;15.57;13.63;;;21.20;99.90;;;;;;4968394;28;20472;-86
2023/09/08 03:45:17;;;;;;;14.65;12.88;;;21.10;99.90;;;;;;4974379;28;20117;-85
2023/09/08 03:47:42;;;;;;;15.43;13.65;;;21.10;99.90;;;;;;4945326;28;20038;-87
2023/09/08 03:50:08;;;;;;;14.98;13.40;;;20.90;99.90;;;;;;4969293;28;20046;-87
2023/09/08 03:52:34;;;;;;;16.25;13.65;;;20.80;99.90;;;;;;4953295;28;20127;-88
2023/09/08 03:54:59;;;;;;;14.27;12.98;;;20.60;99.90;;;;;;4954294;29;20074;-87
2023/09/08 03:57:25;;;;;;;15.55;13.20;;;20.80;99.90;;;;;;4968644;28;20019;-86
2023/09/08 03:59:51;;;;;;;15.18;13.57;;;20.70;99.90;;;;;;4956475;28;20031;-86
2023/09/08 04:02:16;;;;;;;14.77;13.27;;;20.70;99.90;;;;;;4953977;29;20023;-86
2023/09/08 04:04:42;;;;;;;17.25;13.48;;;20.70;99.90;;;;;;4959265;28;20039;-86
2023/09/08 04:07:07;;;;;;;14.48;13.18;;;20.70;99.90;;;;;;4954066;29;20047;-87
2023/09/08 04:09:33;;;;;;;14.55;12.82;;;20.80;99.90;;;;;;4967487;28;20039;-86
2023/09/08 04:11:59;;;;;;;14.02;12.70;;;20.80;99.90;;;;;;4966855;28;20034;-86
2023/09/08 04:14:27;;;;;;;13.55;12.27;;;20.80;99.90;;;;;;4967349;28;20526;-86
2023/09/08 04:16:53;;;;;;;14.07;12.45;;;20.80;99.90;;;;;;4978629;28;20039;-86
2023/09/08 04:19:18;;;;;;;13.30;11.80;;;20.90;99.90;;;;;;4987424;28;20060;-86
2023/09/08 04:21:44;;;;;;;13.50;12.07;;;20.90;99.90;;;;;;4974267;28;20023;-86
2023/09/08 04:24:10;;;;;;;13.43;12.13;;;20.90;99.90;;;;;;4960241;28;20023;-86
2023/09/08 04:26:36;;;;;;;13.48;11.85;;;21.00;99.90;;;;;;4960157;28;20033;-86
2023/09/08 04:29:02;;;;;;;12.48;11.27;;;20.90;99.90;;;;;;4955262;28;20118;-87
2023/09/08 04:31:27;;;;;;;16.83;11.73;;;21.00;99.90;;;;;;4954285;29;20106;-86
2023/09/08 04:33:54;;;;;;;13.32;11.40;;;20.90;99.90;;;;;;4957869;28;20091;-86
2023/09/08 04:36:19;;;;;;;13.50;12.10;;;21.40;99.90;;;;;;4953973;28;20035;-87
2023/09/08 04:38:45;;;;;;;20.05;12.35;;;20.90;99.90;;;;;;4968345;28;20031;-87
2023/09/08 04:41:10;;;;;;;18.10;12.90;;;20.90;99.90;;;;;;4977993;28;20031;-87
2023/09/08 04:43:37;;;;;;;13.27;12.10;;;20.80;99.90;;;;;;4966102;28;20065;-87
2023/09/08 04:46:03;;;;;;;13.57;11.82;;;20.90;99.90;;;;;;4961294;28;20050;-88
2023/09/08 04:48:29;;;;;;;13.13;11.77;;;20.90;99.90;;;;;;4954217;28;20070;-87
2023/09/08 04:50:55;;;;;;;13.65;12.00;;;21.00;99.90;;;;;;4957814;28;20043;-87
2023/09/08 04:53:20;;;;;;;13.70;12.35;;;21.10;99.90;;;;;;4962687;28;20117;-87
2023/09/08 04:55:46;;;;;;;12.88;11.60;;;21.00;99.90;;;;;;4971777;28;20471;-86
2023/09/08 04:58:11;;;;;;;13.65;12.38;;;21.00;99.90;;;;;;4959167;28;20050;-87
2023/09/08 05:00:40;;;;;;;16.05;11.63;;;21.10;99.90;;;;;;4964536;28;20030;-87
2023/09/08 05:03:06;;;;;;;13.98;12.10;;;21.00;99.90;;;;;;4961803;28;20110;-87
2023/09/08 05:05:31;;;;;;;13.45;12.23;;;21.00;99.90;;;;;;4969873;28;20114;-87
2023/09/08 05:07:57;;;;;;;13.18;11.88;;;21.00;99.90;;;;;;4970580;28;20034;-87
2023/09/08 05:10:23;;;;;;;14.00;12.27;;;21.00;99.90;;;;;;4958200;28;20035;-87
2023/09/08 05:12:49;;;;;;;12.88;11.70;;;20.90;99.90;;;;;;4963849;28;20035;-86
2023/09/08 05:15:16;;;;;;;14.00;12.60;;;20.90;99.90;;;;;;4972579;28;20551;-86
2023/09/08 05:17:42;;;;;;;12.93;11.45;;;20.90;99.90;;;;;;4978882;28;20027;-86
2023/09/08 05:20:08;;;;;;;13.82;12.45;;;20.90;99.90;;;;;;4972031;28;20046;-87
2023/09/08 05:22:34;;;;;;;16.70;12.93;;;20.90;99.90;;;;;;4984984;28;20011;-87
2023/09/08 05:25:00;;;;;;;13.88;12.27;;;20.90;99.90;;;;;;4974793;28;20063;-87
2023/09/08 05:27:25;;;;;;;16.60;13.20;;;20.90;99.90;;;;;;4976284;28;20031;-87
2023/09/08 05:29:51;;;;;;;18.20;14.82;;;20.90;99.90;;;;;;4973650;28;20031;-87
2023/09/08 05:32:16;;;;;;;14.15;12.63;;;20.80;99.90;;;;;;4963505;28;20062;-91
2023/09/08 05:34:42;;;;;;;29.35;13.57;;;20.80;99.90;;;;;;4968688;28;20171;-89
2023/09/08 05:37:08;;;;;;;16.48;12.60;;;20.80;99.90;;;;;;4964586;28;20027;-85
2023/09/08 05:39:34;;;;;;;17.15;13.98;;;20.80;99.90;;;;;;4952662;28;20565;-84
2023/09/08 05:41:59;;;;;;;14.57;13.05;;;20.80;99.90;;;;;;4947354;29;20071;-86
2023/09/08 05:44:25;;;;;;;13.80;12.27;;;20.80;99.90;;;;;;4945682;29;20032;-85
2023/09/08 05:46:51;;;;;;;14.57;12.38;;;20.80;99.90;;;;;;4951669;28;20043;-87
2023/09/08 05:49:17;;;;;;;18.90;13.13;;;20.80;99.90;;;;;;4968548;28;20042;-86
2023/09/08 05:51:43;;;;;;;13.38;12.27;;;20.80;99.90;;;;;;4948388;28;20031;-86
2023/09/08 05:54:09;;;;;;;18.10;15.07;;;20.80;99.90;;;;;;4956754;28;20030;-86
2023/09/08 05:56:37;;;;;;;14.50;13.10;;;20.80;99.90;;;;;;4936655;29;20035;-86
2023/09/08 05:59:03;;;;;;;14.98;13.52;;;20.70;99.90;;;;;;4936250;29;20031;-86
2023/09/08 06:01:29;;;;;;;14.00;12.70;;;20.80;99.90;;;;;;4936988;29;20024;-86
2023/09/08 06:03:55;;;;;;;15.65;13.85;;;20.80;99.90;;;;;;4936727;29;20023;-86
2023/09/08 06:06:21;;;;;;;14.43;12.88;;;20.80;99.90;;;;;;4936547;29;20079;-86
2023/09/08 06:08:47;;;;;;;14.32;13.05;;;21.10;99.90;;;;;;4936206;29;20038;-85
2023/09/08 06:11:13;;;;;;;15.48;13.80;;;20.90;99.90;;;;;;4937696;28;20119;-85
2023/09/08 06:13:38;;;;;;;16.20;13.25;;;21.30;99.90;;;;;;4957062;28;20102;-85
2023/09/08 06:16:04;;;;;;;17.17;12.80;;;21.60;99.90;;;;;;4969192;28;20023;-85
2023/09/08 06:18:33;;;;;;;14.63;13.10;;;20.90;99.90;;;;;;4963241;28;20020;-86
2023/09/08 06:20:59;;;;;;;19.88;14.45;;;21.00;99.90;;;;;;4955772;29;20032;-87
2023/09/08 06:23:25;;;;;;;15.48;13.98;;;20.90;99.90;;;;;;4959056;29;20041;-87
2023/09/08 06:25:50;;;;;;;15.57;14.18;;;21.10;99.90;;;;;;4979877;28;20075;-86
2023/09/08 06:28:16;;;;;;;21.90;15.65;;;20.90;99.90;;;;;;4960674;29;20031;-87
2023/09/08 06:30:41;;;;;;;16.20;14.27;;;20.90;99.90;;;;;;4957919;29;20129;-86
2023/09/08 06:33:08;;;;;;;15.63;14.10;;;21.00;99.90;;;;;;4960372;28;20027;-85
2023/09/08 06:35:34;;;;;;;16.83;14.93;;;20.30;99.90;;;;;;4963183;28;20034;-86
2023/09/08 06:38:00;;;;;;;16.42;14.45;;;21.00;99.90;;;;;;4955137;29;20023;-86
2023/09/08 06:40:25;;;;;;;15.65;13.65;;;21.80;99.90;;;;;;4970630;28;20487;-85
2023/09/08 06:42:55;;;;;;;16.67;14.85;;;21.00;99.90;;;;;;4963894;28;20118;-84
2023/09/08 06:45:20;;;;;;;16.58;14.95;;;21.00;99.90;;;;;;4962371;28;20062;-84
2023/09/08 06:47:46;;;;;;;16.38;14.23;;;21.10;99.90;;;;;;4962633;28;20472;-84
2023/09/08 06:50:12;;;;;;;19.40;15.95;;;21.00;99.90;;;;;;4970019;28;20089;-85
2023/09/08 06:52:37;;;;;;;18.33;14.40;;;21.10;99.90;;;;;;5060650;23;20043;-84
2023/09/08 06:55:04;;;;;;;17.58;14.25;;;21.10;99.90;;;;;;4955406;28;20032;-84
2023/09/08 06:57:30;;;;;;;18.50;16.08;;;21.10;99.90;;;;;;4969303;28;20027;-88
2023/09/08 06:59:56;;;;;;;22.55;15.32;;;21.10;99.90;;;;;;4976043;28;20041;-90
2023/09/08 07:02:21;;;;;;;20.30;17.00;;;21.10;99.90;;;;;;4974678;28;20038;-89
2023/09/08 07:04:47;;;;;;;18.15;16.27;;;21.20;99.90;;;;;;4970591;28;20030;-87
2023/09/08 07:07:13;;;;;;;19.13;16.00;;;22.00;99.90;;;;;;4960053;28;20258;-84
2023/09/08 07:09:39;;;;;;;17.75;15.77;;;21.10;99.90;;;;;;4953961;29;20034;-89
2023/09/08 07:12:06;;;;;;;20.45;16.27;;;21.10;99.90;;;;;;4961093;28;20038;-86
2023/09/08 07:14:32;;;;;;;17.70;15.90;;;21.20;99.90;;;;;;4953193;29;20027;-87
2023/09/08 07:16:57;;;;;;;19.30;15.77;;;21.20;99.90;;;;;;4964128;28;20495;-86
2023/09/08 07:19:23;;;;;;;17.20;15.60;;;21.20;99.90;;;;;;4953593;29;20031;-86
2023/09/08 07:21:48;;;;;;;18.02;16.08;;;22.10;99.90;;;;;;4968251;28;20443;-86
2023/09/08 07:24:14;;;;;;;22.52;16.77;;;21.50;99.90;;;;;;4973347;28;20109;-84
2023/09/08 07:26:40;;;;;;;22.38;17.02;;;21.50;99.90;;;;;;4967861;28;20027;-87
2023/09/08 07:29:05;;;;;;;18.90;16.42;;;21.30;99.90;;;;;;4970881;28;20118;-84
2023/09/08 07:31:31;;;;;;;22.67;17.00;;;21.30;99.90;;;;;;4989320;28;20035;-84
2023/09/08 07:34:08;;;;;;;18.23;16.42;;;21.50;99.90;;;;;;4978665;28;20023;-85
2023/09/08 07:36:36;;;;;;;24.13;16.65;;;21.40;99.90;;;;;;4968379;28;20039;-89
2023/09/08 07:39:26;;;;;;;19.33;17.48;;;22.30;99.90;;;;;;4955798;29;20030;-92
2023/09/08 07:42:18;;;;;;;;;;;21.40;99.90;;;;;;4967679;28;20094;-91
2023/09/08 07:51:30;;;;;;;21.17;18.15;;;21.50;99.90;;;;;;4996093;28;20497;-89
2023/09/08 07:53:56;;;;;;;18.52;16.67;;;21.60;99.90;;;;;;4988219;28;20023;-81
2023/09/08 07:56:23;;;;;;;16.45;14.75;;;21.60;99.90;;;;;;4992038;28;20562;-81
2023/09/08 07:58:49;;;;;;;20.40;17.00;;;21.60;99.90;;;;;;4983666;28;20142;-82
2023/09/08 08:01:15;;;;;;;19.95;16.70;;;22.00;99.90;;;;;;4974702;28;20058;-81
2023/09/08 08:03:41;;;;;;;19.13;17.33;;;22.20;99.90;;;;;;4989925;28;20034;-82
2023/09/08 08:06:07;;;;;;;21.45;17.27;;;21.80;99.90;;;;;;4981435;28;20077;-83
2023/09/08 08:08:38;;;;;;;19.92;17.48;;;21.80;99.90;;;;;;4985547;28;20043;-85
2023/09/08 08:11:13;;;;;;;18.05;16.25;;;22.00;99.90;;;;;;4987094;28;20042;-85
2023/09/08 08:13:40;;;;;;;21.92;17.50;;;22.00;99.90;;;;;;4991671;28;20034;-83
2023/09/08 08:16:06;;;;;;;18.52;16.45;;;22.10;99.90;;;;;;4977378;28;20022;-87
2023/09/08 08:18:31;;;;;;;20.13;18.05;;;22.10;99.90;;;;;;4990747;28;20053;-86
2023/09/08 08:20:57;;;;;;;20.83;18.75;;;22.20;99.90;;;;;;4984170;28;20027;-84
2023/09/08 08:23:23;;;;;;;25.20;18.00;;;22.70;99.90;;;;;;4978005;28;20058;-89
2023/09/08 08:25:49;;;;;;;30.52;19.33;;;22.30;99.90;;;;;;4986202;28;20117;-87
2023/09/08 08:28:15;;;;;;;22.35;16.70;;;22.30;99.90;;;;;;4984520;28;20026;-88
2023/09/08 08:30:40;;;;;;;20.30;18.20;;;22.30;99.90;;;;;;4978766;28;20049;-83
2023/09/08 08:33:06;;;;;;;23.30;18.60;;;22.20;99.90;;;;;;4983707;28;20485;-84
2023/09/08 08:35:32;;;;;;;27.00;17.98;;;22.40;99.90;;;;;;4984345;28;20368;-82
2023/09/08 08:38:00;;;;;;;20.75;18.55;;;22.80;99.90;;;;;;4985095;28;20081;-85
2023/09/08 08:40:27;;;;;;;30.40;18.50;;;22.70;99.90;;;;;;4987557;28;20039;-86
2023/09/08 08:42:56;;;;;;;23.08;17.60;;;22.60;99.90;;;;;;4981672;28;20054;-85
2023/09/08 08:45:25;;;;;;;22.35;19.42;;;22.60;99.90;;;;;;4979238;28;20050;-85
2023/09/08 08:47:52;;;;;;;22.33;18.55;;;22.60;99.90;;;;;;4996008;28;20052;-89
2023/09/08 08:50:18;;;;;;;21.80;19.40;;;22.70;99.90;;;;;;4996585;28;20049;-88
2023/09/08 08:52:45;;;;;;;21.17;18.83;;;22.70;99.90;;;;;;4987853;28;20251;-89
2023/09/08 08:55:11;;;;;;;23.15;19.83;;;22.80;99.90;;;;;;4987041;28;20041;-87
2023/09/08 08:57:39;;;;;;;19.98;17.17;;;22.80;99.90;;;;;;4976033;28;20026;-88
2023/09/08 09:00:15;;;;;;;21.58;18.55;;;22.90;99.90;;;;;;4976871;28;20122;-88
2023/09/08 09:02:43;;;;;;;21.85;19.75;;;22.90;99.90;;;;;;4994022;28;20037;-86
2023/09/08 09:05:12;;;;;;;23.13;18.90;;;23.00;99.90;;;;;;4983106;28;20043;-89
2023/09/08 09:07:40;;;;;;;25.08;20.58;;;23.00;99.90;;;;;;4976542;28;20546;-88
2023/09/08 09:10:07;;;;;;;21.75;19.55;;;23.00;99.90;;;;;;4973378;28;20062;-87
2023/09/08 09:12:33;;;;;;;21.25;19.15;;;23.00;99.90;;;;;;4979170;28;20030;-86
2023/09/08 09:15:00;;;;;;;24.13;19.98;;;23.00;99.90;;;;;;4992018;28;20023;-85
2023/09/08 09:17:26;;;;;;;23.13;19.95;;;23.10;99.90;;;;;;4984500;28;20050;-86
2023/09/08 09:20:20;;;;;;;22.50;20.15;;;23.10;99.90;;;;;;4995231;28;20073;-86
2023/09/08 09:22:49;;;;;;;24.60;21.50;;;23.10;99.90;;;;;;4979293;28;20029;-87
2023/09/08 09:25:25;;;;;;;23.83;20.33;;;23.20;99.90;;;;;;4994943;28;20050;-89
2023/09/08 09:28:02;;;;;;;21.95;19.67;;;23.20;99.90;;;;;;4983391;28;20483;-88
2023/09/08 09:30:49;;;;;;;25.55;19.92;;;23.20;99.90;;;;;;4993340;28;20441;-89
2023/09/08 09:33:16;;;;;;;26.45;22.58;;;23.30;99.90;;;;;;5008075;28;20031;-91
2023/09/08 09:35:47;;;;;;;23.75;19.73;;;23.30;99.90;;;;;;5012831;28;20034;-91
2023/09/08 09:38:14;;;;;;;26.80;20.20;;;23.30;99.90;;;;;;5008765;28;20029;-90
2023/09/08 09:40:40;;;;;;;23.52;18.95;;;23.40;99.90;;;;;;4988875;28;20038;-91
2023/09/08 09:43:07;;;;;;;23.13;20.33;;;23.40;99.90;;;;;;4993427;28;20023;-89
2023/09/08 09:45:37;;;;;;;23.70;21.33;;;23.40;99.90;;;;;;4961932;28;20034;-94
2023/09/08 09:48:04;;;;;;;28.73;21.63;;;23.50;99.90;;;;;;4979111;28;20152;-87
2023/09/08 09:50:31;;;;;;;26.48;21.45;;;23.50;99.90;;;;;;4977487;28;20042;-90
2023/09/08 09:53:02;;;;;;;28.52;20.55;;;23.60;99.90;;;;;;4978343;28;20022;-91
2023/09/08 09:55:28;;;;;;;21.70;19.50;;;23.60;99.90;;;;;;4979299;28;20106;-92
2023/09/08 09:57:58;;;;;;;23.63;21.17;;;23.60;99.90;;;;;;4984928;28;20027;-91
2023/09/08 10:00:28;;;;;;;24.10;21.58;;;24.10;99.90;;;;;;4998009;28;20027;-92
2023/09/08 10:02:55;;;;;;;24.08;20.98;;;23.70;99.90;;;;;;4997689;28;20026;-92
2023/09/08 10:05:20;;;;;;;21.63;18.58;;;23.70;99.90;;;;;;4996702;28;20050;-92
2023/09/08 10:07:48;;;;;;;20.92;18.90;;;23.80;99.90;;;;;;4983610;28;20169;-91
2023/09/08 10:10:16;;;;;;;24.02;21.50;;;23.80;99.90;;;;;;4990285;28;20043;-91
2023/09/08 10:12:51;;;;;;;24.58;20.45;;;23.90;99.90;;;;;;4946930;28;20038;-87
2023/09/08 10:15:21;;;;;;;26.67;20.27;;;23.90;99.90;;;;;;4975632;28;20026;-87
2023/09/08 10:17:52;;;;;;;24.05;21.63;;;23.90;99.90;;;;;;4969988;28;20031;-87
2023/09/08 10:20:21;;;;;;;28.83;21.35;;;23.90;99.90;;;;;;4969084;28;20223;-88
2023/09/08 10:22:52;;;;;;;23.33;20.85;;;24.00;99.90;;;;;;4965813;28;20023;-89
2023/09/08 10:25:24;;;;;;;20.85;18.70;;;24.10;99.90;;;;;;4967813;28;20027;-90
2023/09/08 10:27:50;;;;;;;24.23;20.48;;;24.10;99.90;;;;;;4965254;28;20054;-87
2023/09/08 10:30:17;;;;;;;23.00;20.60;;;24.20;99.90;;;;;;4966857;28;20043;-88
2023/09/08 10:32:43;;;;;;;24.58;20.52;;;24.20;99.90;;;;;;4972417;28;20034;-89
2023/09/08 10:35:10;;;;;;;22.85;20.38;;;24.30;99.90;;;;;;4974447;28;20246;-88
2023/09/08 10:37:36;;;;;;;23.60;21.33;;;24.40;99.90;;;;;;4979677;28;20039;-86
2023/09/08 10:40:22;;;;;;;23.15;20.75;;;24.40;99.90;;;;;;4977365;28;20035;-87
2023/09/08 10:42:49;;;;;;;21.42;19.17;;;24.40;99.90;;;;;;4996547;28;20315;-89
2023/09/08 10:45:17;;;;;;;25.85;22.27;;;24.40;99.90;;;;;;4982985;28;20103;-88
2023/09/08 10:47:45;;;;;;;24.35;21.85;;;24.40;99.90;;;;;;4976377;28;20125;-86
2023/09/08 10:50:18;;;;;;;25.23;22.60;;;24.50;99.90;;;;;;4975262;28;20325;-87
2023/09/08 10:52:44;;;;;;;23.73;20.45;;;24.60;99.90;;;;;;4975350;28;20402;-84
2023/09/08 10:55:15;;;;;;;23.92;21.42;;;24.60;99.90;;;;;;4958385;28;20030;-84
2023/09/08 10:57:44;;;;;;;;;;;24.60;99.90;;;;;;4976162;28;20022;-84
2023/09/08 11:00:12;;;;;;;25.50;20.55;;;24.60;99.90;;;;;;4991880;28;19912;-85
2023/09/08 11:02:42;;;;;;;21.75;19.38;;;24.60;99.90;;;;;;4976435;28;20042;-84
2023/09/08 11:05:10;;;;;;;18.17;16.20;;;24.70;99.90;;;;;;4989599;28;20057;-85
2023/09/08 11:07:39;;;;;;;23.20;17.08;;;24.80;99.90;;;;;;4993154;28;20026;-85
2023/09/08 11:10:06;;;;;;;23.35;18.73;;;24.90;99.90;;;;;;4984398;28;20487;-84
2023/09/08 11:12:32;;;;;;;21.58;19.15;;;24.90;99.90;;;;;;4976774;28;20035;-84
2023/09/08 11:15:00;;;;;;;24.73;21.35;;;25.00;99.90;;;;;;4990333;28;20076;-85
2023/09/08 11:17:30;;;;;;;19.33;17.38;;;25.00;99.90;;;;;;4981370;28;20029;-90
2023/09/08 11:19:56;;;;;;;19.23;17.27;;;25.00;99.90;;;;;;4980420;28;20023;-93
2023/09/08 11:22:31;;;;;;;20.15;16.58;;;25.00;99.90;;;;;;4996181;28;20293;-95
2023/09/08 11:24:57;;;;;;;18.95;17.00;;;25.10;99.90;;;;;;4951471;29;20091;-89
2023/09/08 11:27:23;;;;;;;15.55;14.07;;;25.10;99.90;;;;;;4968656;28;20030;-91
2023/09/08 11:29:50;;;;;;;18.40;16.60;;;25.10;99.90;;;;;;4991152;28;20037;-91
2023/09/08 11:32:15;;;;;;;20.67;17.80;;;25.20;99.90;;;;;;4992917;28;20037;-89
2023/09/08 11:34:41;;;;;;;22.20;18.67;;;25.20;99.90;;;;;;4981273;28;20030;-92
2023/09/08 11:37:16;;;;;;;16.77;15.02;;;25.20;99.90;;;;;;4995142;28;20070;-89
2023/09/08 11:39:42;;;;;;;15.88;13.35;;;25.30;99.90;;;;;;4973046;28;20023;-91
2023/09/08 11:42:09;;;;;;;13.55;12.30;;;25.30;99.90;;;;;;4975641;28;20038;-90
2023/09/08 11:44:36;;;;;;;14.10;12.45;;;25.40;99.90;;;;;;4955205;29;20075;-89
2023/09/08 11:47:03;;;;;;;18.30;11.88;;;25.40;99.90;;;;;;4987757;28;20058;-89
2023/09/08 11:49:41;;;;;;;15.40;13.40;;;25.50;99.90;;;;;;4982109;28;20043;-89
2023/09/08 11:52:07;;;;;;;16.88;13.50;;;25.70;99.90;;;;;;4981756;28;20431;-87
2023/09/08 11:54:39;;;;;;;18.90;13.10;;;25.70;99.90;;;;;;4994190;28;20022;-87
2023/09/08 11:57:07;;;;;;;17.27;15.55;;;25.70;99.90;;;;;;4988408;28;20034;-91
2023/09/08 11:59:34;;;;;;;16.13;13.35;;;25.80;99.90;;;;;;4989629;28;20113;-90
2023/09/08 12:02:00;;;;;;;14.32;12.90;;;25.80;99.90;;;;;;4991547;28;20046;-91
2023/09/08 12:04:26;;;;;;;13.68;11.57;;;25.80;99.90;;;;;;4995367;28;20045;-92
2023/09/08 12:06:53;;;;;;;12.70;10.90;;;25.90;99.90;;;;;;4988813;28;20023;-85
2023/09/08 12:09:21;;;;;;;10.18;9.15;;;25.90;99.90;;;;;;4980869;28;20035;-89
2023/09/08 12:11:47;;;;;;;10.75;9.68;;;26.00;99.90;;;;;;4973672;28;20037;-85
2023/09/08 12:14:14;;;;;;;10.82;9.82;;;26.10;99.90;;;;;;4993969;28;20031;-84
2023/09/08 12:16:41;;;;;;;10.25;8.30;;;26.20;99.90;;;;;;4984909;28;20517;-85
2023/09/08 12:19:08;;;;;;;13.60;10.35;;;26.20;99.90;;;;;;4979307;28;20056;-83
2023/09/08 12:21:55;;;;;;;11.05;9.93;;;26.20;99.90;;;;;;4974309;28;20422;-89
2023/09/08 12:24:40;;;;;;;9.63;8.82;;;26.20;99.90;;;;;;4991810;28;20025;-86
2023/09/08 12:27:07;;;;;;;8.75;7.97;;;26.20;99.90;;;;;;4992900;28;20562;-87
2023/09/08 12:29:33;;;;;;;8.40;7.70;;;26.20;99.90;;;;;;4994896;28;20486;-85
2023/09/08 12:31:59;;;;;;;16.02;8.40;;;26.30;99.90;;;;;;4995226;28;20021;-87
2023/09/08 12:34:24;;;;;;;16.02;8.15;;;26.30;99.90;;;;;;4995461;28;20061;-84